createdAt,value
2023-04-18T00:01:28.337Z,67.4375
2023-04-18T00:03:28.765Z,67.53223
2023-04-18T00:05:28.351Z,67.50684
2023-04-18T00:07:28.290Z,67.51953
2023-04-18T00:09:28.398Z,67.18457
2023-04-18T00:11:28.453Z,67.3623
2023-04-18T00:13:28.372Z,67.39258
2023-04-18T00:15:28.304Z,67.38086
2023-04-18T00:16:50.406Z,67.40137
2023-04-18T00:18:50.505Z,67.55469
2023-04-18T00:20:50.293Z,67.69238
2023-04-18T00:22:50.343Z,67.59961
2023-04-18T00:24:50.286Z,67.96094
2023-04-18T00:26:50.411Z,68.63281
2023-04-18T00:28:50.302Z,68.2168
2023-04-18T00:31:42.240Z,67.9209
2023-04-18T00:33:42.284Z,67.90918
2023-04-18T00:35:42.288Z,67.92773
2023-04-18T00:37:42.228Z,67.89941
2023-04-18T00:39:42.284Z,67.96387
2023-04-18T00:41:42.219Z,68.41406
2023-04-18T00:43:42.335Z,68.68848
2023-04-18T00:45:42.577Z,68.36621
2023-04-18T00:47:42.167Z,68.16113
2023-04-18T00:49:42.020Z,68.10352
2023-04-18T00:51:41.984Z,67.9043
2023-04-18T00:53:41.964Z,67.6875
2023-04-18T00:55:42.105Z,67.86133
2023-04-18T00:57:41.938Z,67.98535
2023-04-18T00:59:42.085Z,67.81738
2023-04-18T01:02:33.325Z,67.8252
2023-04-18T01:04:33.141Z,67.82617
2023-04-18T01:06:32.943Z,67.87109
2023-04-18T01:08:32.845Z,67.83789
2023-04-18T01:10:32.859Z,67.65332
2023-04-18T01:12:32.925Z,67.94336
2023-04-18T01:14:32.852Z,68.15527
2023-04-18T01:18:08.784Z,68.34961
2023-04-18T01:20:08.736Z,68.17285
2023-04-18T01:22:08.895Z,68.14746
2023-04-18T01:24:08.743Z,68.20996
2023-04-18T01:26:08.729Z,68.07129
2023-04-18T01:28:08.665Z,67.7207
2023-04-18T01:30:08.718Z,67.55469
2023-04-18T01:33:00.236Z,67.66895
2023-04-18T01:35:00.200Z,67.49316
2023-04-18T01:37:00.129Z,67.32422
2023-04-18T01:39:00.186Z,67.24121
2023-04-18T01:41:00.127Z,67.14648
2023-04-18T01:43:00.159Z,67.2793
2023-04-18T01:45:00.111Z,67.28711
2023-04-18T01:48:32.269Z,67.13965
2023-04-18T01:50:32.310Z,67.44336
2023-04-18T01:52:32.175Z,67.4082
2023-04-18T01:54:32.189Z,67.54785
2023-04-18T01:56:32.155Z,67.67773
2023-04-18T01:58:32.124Z,67.58691
2023-04-18T02:00:32.212Z,67.50879
2023-04-18T02:03:06.982Z,67.84766
2023-04-18T02:05:06.735Z,68.05469
2023-04-18T02:07:07.107Z,68.44922
2023-04-18T02:09:06.792Z,68.19727
2023-04-18T02:11:07.037Z,68.10156
2023-04-18T02:13:06.932Z,68.43652
2023-04-18T02:15:06.828Z,68.60254
2023-04-18T02:18:07.986Z,68.94727
2023-04-18T02:20:07.740Z,69.14648
2023-04-18T02:22:07.665Z,69.08398
2023-04-18T02:24:07.872Z,69.4248
2023-04-18T02:26:07.945Z,69.27246
2023-04-18T02:28:07.619Z,69.8252
2023-04-18T02:30:07.779Z,69.55469
2023-04-18T02:33:48.603Z,69.55078
2023-04-18T02:35:48.795Z,69.76563
2023-04-18T02:37:48.956Z,69.78516
2023-04-18T02:39:48.603Z,69.83105
2023-04-18T02:41:48.562Z,69.4707
2023-04-18T02:43:48.576Z,69.33691
2023-04-18T02:45:48.650Z,69.26758
2023-04-18T02:48:17.270Z,69.18066
2023-04-18T02:50:17.256Z,69.43164
2023-04-18T02:52:17.297Z,69.58008
2023-04-18T02:54:17.343Z,69.85059
2023-04-18T02:56:17.422Z,70.49805
2023-04-18T02:58:17.346Z,70.20117
2023-04-18T03:00:17.198Z,69.55762
2023-04-18T03:02:20.346Z,69.62695
2023-04-18T03:04:13.689Z,69.45508
2023-04-18T03:06:13.028Z,69.41992
2023-04-18T03:08:13.096Z,72.22656
2023-04-18T03:10:13.021Z,73.05078
2023-04-18T03:12:13.094Z,72.04883
2023-04-18T03:14:13.468Z,71.47852
2023-04-18T03:16:13.119Z,71.27637
2023-04-18T03:18:43.649Z,71.99512
2023-04-18T03:20:43.641Z,73.17773
2023-04-18T03:22:43.706Z,72.5918
2023-04-18T03:24:43.682Z,71.42969
2023-04-18T03:26:43.665Z,71.72949
2023-04-18T03:28:43.732Z,71.78223
2023-04-18T03:30:43.676Z,72.55469
2023-04-18T03:32:43.831Z,72.42285
2023-04-18T03:34:34.228Z,71.61719
2023-04-18T03:36:34.276Z,71.12695
2023-04-18T03:38:34.206Z,70.58984
2023-04-18T03:40:34.274Z,70.56738
2023-04-18T03:42:34.372Z,69.75488
2023-04-18T03:44:34.340Z,69.92773
2023-04-18T03:46:34.310Z,70.04395
2023-04-18T03:49:29.019Z,69.70605
2023-04-18T03:51:28.926Z,69.65234
2023-04-18T03:53:28.906Z,69.72168
2023-04-18T03:55:28.973Z,69.34766
2023-04-18T03:57:28.945Z,69.49609
2023-04-18T03:59:28.948Z,70.5498
2023-04-18T04:01:29.000Z,70.37012
2023-04-18T04:04:40.536Z,69.50586
2023-04-18T04:06:40.281Z,69.5752
2023-04-18T04:08:40.310Z,69.90625
2023-04-18T04:10:40.333Z,69.66309
2023-04-18T04:12:40.327Z,69.22656
2023-04-18T04:14:40.312Z,70.13281
2023-04-18T04:16:40.509Z,69.5498
2023-04-18T04:19:41.218Z,69.30664
2023-04-18T04:21:41.233Z,69.47656
2023-04-18T04:23:41.166Z,69.87109
2023-04-18T04:25:41.225Z,70.46094
2023-04-18T04:27:41.222Z,70.91309
2023-04-18T04:29:41.243Z,70.66895
2023-04-18T04:31:41.364Z,70.16309
2023-04-18T04:35:19.382Z,70.10449
2023-04-18T04:37:19.549Z,70.06738
2023-04-18T04:39:19.234Z,70.90625
2023-04-18T04:41:19.140Z,70.82813
2023-04-18T04:43:19.443Z,70.64941
2023-04-18T04:45:19.308Z,70.19824
2023-04-18T04:47:19.444Z,69.89453
2023-04-18T04:49:53.687Z,69.53906
2023-04-18T04:51:53.722Z,69.16016
2023-04-18T04:53:53.650Z,69.72656
2023-04-18T04:55:53.825Z,70.33984
2023-04-18T04:57:53.777Z,70.6582
2023-04-18T04:59:53.777Z,70.5918
2023-04-18T05:01:53.950Z,71.20996
2023-04-18T05:05:39.636Z,71.54395
2023-04-18T05:07:39.744Z,71.11523
2023-04-18T05:09:39.671Z,70.92969
2023-04-18T05:11:39.765Z,70.91211
2023-04-18T05:13:39.715Z,70.92578
2023-04-18T05:15:39.645Z,70.64453
2023-04-18T05:17:39.688Z,70.91504
2023-04-18T05:20:09.408Z,70.73438
2023-04-18T05:22:09.385Z,70.45215
2023-04-18T05:24:09.492Z,71.0625
2023-04-18T05:26:09.427Z,70.54004
2023-04-18T05:28:09.658Z,70.87891
2023-04-18T05:30:09.394Z,70.71191
2023-04-18T05:32:09.385Z,71.1543
2023-04-18T05:35:41.355Z,71.70703
2023-04-18T05:37:41.444Z,72.39746
2023-04-18T05:39:41.483Z,72.17871
2023-04-18T05:41:41.307Z,71.05273
2023-04-18T05:43:46.335Z,71.0791
2023-04-18T05:45:41.339Z,70.25684
2023-04-18T05:47:41.415Z,70.25586
2023-04-18T05:50:54.049Z,70.06445
2023-04-18T05:52:54.027Z,69.30469
2023-04-18T05:54:54.086Z,69.19922
2023-04-18T05:56:54.069Z,69.19824
2023-04-18T05:58:54.011Z,70.00488
2023-04-18T06:00:53.983Z,69.3457
2023-04-18T06:02:54.594Z,68.29785
2023-04-18T06:05:50.659Z,68.38184
2023-04-18T06:07:50.632Z,67.76074
2023-04-18T06:09:50.615Z,67.05762
2023-04-18T06:11:50.719Z,66.45898
2023-04-18T06:13:53.454Z,67.22266
2023-04-18T06:15:50.721Z,65.07227
2023-04-18T06:17:51.732Z,63.82422
2023-04-18T06:21:09.572Z,64.45605
2023-04-18T06:23:09.543Z,64.0498
2023-04-18T06:25:09.576Z,62.12988
2023-04-18T06:27:30.423Z,62.47949
2023-04-18T06:29:09.527Z,62.83203
2023-04-18T06:31:09.643Z,62.35449
2023-04-18T06:33:09.630Z,63.7793
2023-04-18T06:36:41.805Z,61.62891
2023-04-18T06:38:41.752Z,61.57715
2023-04-18T06:40:41.822Z,62.2998
2023-04-18T06:42:42.007Z,59.7168
2023-04-18T06:44:41.746Z,59.02441
2023-04-18T06:46:41.790Z,56.58008
2023-04-18T06:48:41.799Z,58.77051
2023-04-18T06:51:33.313Z,57.78223
2023-04-18T06:53:33.237Z,57.94434
2023-04-18T06:55:33.219Z,57.44141
2023-04-18T06:57:33.202Z,57.73535
2023-04-18T06:59:33.418Z,58.36035
2023-04-18T07:01:33.421Z,57.97852
2023-04-18T07:03:33.308Z,57.90625
2023-04-18T07:06:28.689Z,58.63184
2023-04-18T07:08:28.650Z,56.66016
2023-04-18T07:10:28.743Z,57.4209
2023-04-18T07:12:28.598Z,53.75684
2023-04-18T07:14:28.498Z,56.77539
2023-04-18T07:16:28.933Z,58.68066
2023-04-18T07:18:38.634Z,56.8418
2023-04-18T07:22:11.345Z,56.04785
2023-04-18T07:24:11.805Z,56.70898
2023-04-18T07:26:11.667Z,53.62109
2023-04-18T07:28:11.344Z,54.81152
2023-04-18T07:30:11.793Z,54.36621
2023-04-18T07:32:11.889Z,56.2168
2023-04-18T07:34:11.979Z,55.71973
2023-04-18T07:37:18.907Z,58.45605
2023-04-18T07:39:19.141Z,55.55859
2023-04-18T07:41:19.068Z,56.20508
2023-04-18T07:43:21.063Z,55.39844
2023-04-18T07:45:18.937Z,56.64746
2023-04-18T07:47:22.761Z,57.78809
2023-04-18T07:49:19.012Z,56.87988
2023-04-18T07:52:30.074Z,55.5166
2023-04-18T07:54:29.993Z,54.75879
2023-04-18T07:56:30.193Z,55.66699
2023-04-18T07:58:29.880Z,56.53711
2023-04-18T08:00:29.907Z,56.72949
2023-04-18T08:02:30.485Z,56.67871
2023-04-18T08:04:30.949Z,57.49707
2023-04-18T08:07:16.207Z,57.47461
2023-04-18T08:09:16.474Z,56.31836
2023-04-18T08:11:16.034Z,55.9043
2023-04-18T08:13:16.051Z,54.49707
2023-04-18T08:15:16.079Z,56.48047
2023-04-18T08:17:16.091Z,52.17188
2023-04-18T08:19:16.701Z,57.48242
2023-04-18T08:22:13.544Z,53.41211
2023-04-18T08:24:13.558Z,54.62695
2023-04-18T08:26:13.542Z,51.15332
2023-04-18T08:28:13.581Z,51.65332
2023-04-18T08:30:13.566Z,51.76074
2023-04-18T08:32:13.680Z,48.95313
2023-04-18T08:34:13.566Z,47.95215
2023-04-18T08:37:11.888Z,49.33984
2023-04-18T08:39:12.428Z,50.37793
2023-04-18T08:41:11.805Z,49.32617
2023-04-18T08:43:11.874Z,49.21191
2023-04-18T08:45:11.811Z,47.15918
2023-04-18T08:47:11.793Z,46.26367
2023-04-18T08:49:12.381Z,48.07813
2023-04-18T08:51:11.769Z,49.19629
2023-04-18T08:52:53.767Z,50.31348
2023-04-18T08:54:53.712Z,48.67969
2023-04-18T08:56:53.672Z,46.7793
2023-04-18T08:58:53.706Z,47.01465
2023-04-18T09:00:53.766Z,47.12305
2023-04-18T09:02:53.931Z,48.4209
2023-04-18T09:04:53.738Z,46.12695
2023-04-18T09:07:58.863Z,49.13184
2023-04-18T09:09:58.725Z,47.68262
2023-04-18T09:11:58.717Z,47.32227
2023-04-18T09:13:58.992Z,49.8125
2023-04-18T09:15:58.977Z,48.29883
2023-04-18T09:17:59.189Z,46.62891
2023-04-18T09:19:58.925Z,47.31543
2023-04-18T09:23:01.384Z,48.11719
2023-04-18T09:25:00.254Z,46.0127
2023-04-18T09:27:00.052Z,45.21289
2023-04-18T09:29:00.156Z,47.14551
2023-04-18T09:31:00.181Z,45.57324
2023-04-18T09:33:00.315Z,46.22461
2023-04-18T09:35:04.176Z,47.83398
2023-04-18T09:38:12.860Z,46.77344
2023-04-18T09:40:12.690Z,46.69141
2023-04-18T09:42:12.785Z,45.30273
2023-04-18T09:44:15.772Z,46.1875
2023-04-18T09:46:12.910Z,43.85059
2023-04-18T09:48:12.774Z,45.48242
2023-04-18T09:50:12.797Z,44.51855
2023-04-18T09:53:35.333Z,44.79688
2023-04-18T09:55:35.037Z,46.43652
2023-04-18T09:57:35.112Z,47.46875
2023-04-18T09:59:35.116Z,46.71777
2023-04-18T10:01:35.093Z,46.76563
2023-04-18T10:03:35.414Z,46.18652
2023-04-18T10:05:35.174Z,43.96387
2023-04-18T10:08:12.596Z,48.65723
2023-04-18T10:10:12.707Z,47.84863
2023-04-18T10:12:12.566Z,45.70313
2023-04-18T10:14:13.230Z,46.26074
2023-04-18T10:16:12.687Z,45.1875
2023-04-18T10:18:12.671Z,47.32129
2023-04-18T10:20:12.598Z,44.89355
2023-04-18T10:22:12.609Z,43.71289
2023-04-18T10:23:55.751Z,45.5166
2023-04-18T10:25:55.966Z,44.64551
2023-04-18T10:27:55.776Z,46.3125
2023-04-18T10:29:55.787Z,46.43848
2023-04-18T10:31:56.028Z,43.72949
2023-04-18T10:34:06.035Z,45.4375
2023-04-18T10:35:55.818Z,47.20215
2023-04-18T10:39:02.687Z,46.25488
2023-04-18T10:41:02.689Z,45.23633
2023-04-18T10:43:02.944Z,40.94238
2023-04-18T10:45:02.635Z,41.08203
2023-04-18T10:47:02.708Z,42.0166
2023-04-18T10:49:02.688Z,39.64746
2023-04-18T10:51:02.632Z,38.50781
2023-04-18T10:53:38.959Z,43.4082
2023-04-18T10:55:38.927Z,41.13086
2023-04-18T10:57:39.292Z,44.21973
2023-04-18T10:59:39.048Z,42.42773
2023-04-18T11:01:39.139Z,44.52344
2023-04-18T11:03:39.072Z,42.96191
2023-04-18T11:05:39.327Z,41.70996
2023-04-18T11:07:38.941Z,38.75488
2023-04-18T11:09:08.427Z,41.76855
2023-04-18T11:11:08.400Z,39.36426
2023-04-18T11:13:08.648Z,42.15918
2023-04-18T11:15:08.408Z,45.23242
2023-04-18T11:17:08.468Z,43.11621
2023-04-18T11:19:08.429Z,41.06738
2023-04-18T11:21:08.400Z,43.23438
2023-04-18T11:24:08.598Z,39.57813
2023-04-18T11:26:08.619Z,39.23145
2023-04-18T11:28:08.563Z,41.13867
2023-04-18T11:30:08.897Z,43.40234
2023-04-18T11:32:08.629Z,44.47852
2023-04-18T11:34:08.596Z,44.40918
2023-04-18T11:36:08.596Z,43.29395
2023-04-18T11:39:49.749Z,45.36914
2023-04-18T11:41:49.535Z,44.1543
2023-04-18T11:43:49.534Z,44.38184
2023-04-18T11:45:49.727Z,43.16504
2023-04-18T11:47:49.622Z,42.52539
2023-04-18T11:49:49.556Z,44.76367
2023-04-18T11:51:49.506Z,46.35547
2023-04-18T11:54:16.113Z,46.63965
2023-04-18T11:56:15.973Z,44.92969
2023-04-18T11:58:15.989Z,45.97949
2023-04-18T12:00:16.018Z,44.41406
2023-04-18T12:02:17.544Z,43.70313
2023-04-18T12:04:16.814Z,45.98535
2023-04-18T12:06:16.140Z,47.0459
2023-04-18T12:08:15.946Z,48.27148
2023-04-18T12:09:54.298Z,48.05957
2023-04-18T12:11:54.379Z,48.14258
2023-04-18T12:13:54.301Z,47.89258
2023-04-18T12:15:54.355Z,47.34082
2023-04-18T12:17:54.513Z,50.27441
2023-04-18T12:19:54.361Z,47.81543
2023-04-18T12:21:54.436Z,47.81543
2023-04-18T12:25:37.098Z,48.68555
2023-04-18T12:27:37.121Z,47.27148
2023-04-18T12:29:37.052Z,47.52832
2023-04-18T12:31:37.176Z,45.82617
2023-04-18T12:33:37.195Z,45.45703
2023-04-18T12:35:37.098Z,44.2002
2023-04-18T12:37:37.083Z,43.67676
2023-04-18T12:40:02.508Z,44.02148
2023-04-18T12:42:02.537Z,46.30371
2023-04-18T12:44:02.567Z,46.84375
2023-04-18T12:46:02.494Z,46.41016
2023-04-18T12:48:02.740Z,47.80762
2023-04-18T12:50:02.669Z,45.83496
2023-04-18T12:52:02.527Z,47.68848
2023-04-18T12:55:00.891Z,45.87891
2023-04-18T12:57:00.863Z,42.53613
2023-04-18T12:59:00.821Z,42.57227
2023-04-18T13:01:00.967Z,42.27832
2023-04-18T13:03:01.458Z,42.67969
2023-04-18T13:05:01.010Z,42.89453
2023-04-18T13:07:00.976Z,41.60742
2023-04-18T13:09:02.956Z,42.01465
2023-04-18T13:10:56.196Z,42.05664
2023-04-18T13:12:54.830Z,44.14941
2023-04-18T13:14:54.776Z,43.69434
2023-04-18T13:16:54.841Z,43.47363
2023-04-18T13:18:54.849Z,48.66992
2023-04-18T13:20:54.765Z,49.47168
2023-04-18T13:22:54.990Z,50.33203
2023-04-18T13:25:43.302Z,49.97949
2023-04-18T13:27:43.192Z,49.69336
2023-04-18T13:29:43.225Z,48.78027
2023-04-18T13:31:43.516Z,49.21387
2023-04-18T13:33:43.225Z,48.39941
2023-04-18T13:35:43.238Z,47.67285
2023-04-18T13:37:43.354Z,47.78613
2023-04-18T13:40:47.558Z,49.21484
2023-04-18T13:42:47.775Z,48.91699
2023-04-18T13:44:47.562Z,49.46875
2023-04-18T13:46:47.337Z,48.13281
2023-04-18T13:48:47.793Z,47.41699
2023-04-18T13:50:47.627Z,47.39453
2023-04-18T13:52:47.391Z,46.35742
2023-04-18T13:56:06.593Z,46.30762
2023-04-18T13:58:09.969Z,46.36328
2023-04-18T14:00:06.564Z,47.48535
2023-04-18T14:02:06.699Z,47.55957
2023-04-18T14:04:07.086Z,47.60742
2023-04-18T14:06:06.836Z,47.16016
2023-04-18T14:08:06.487Z,47.29199
2023-04-18T14:11:28.957Z,49.01367
2023-04-18T14:13:28.639Z,49.10156
2023-04-18T14:15:28.727Z,49.42188
2023-04-18T14:17:28.703Z,48.0166
2023-04-18T14:19:28.685Z,48.65332
2023-04-18T14:21:28.672Z,49.33105
2023-04-18T14:23:28.630Z,48.6123
2023-04-18T14:26:28.252Z,49.10938
2023-04-18T14:28:28.238Z,48.76953
2023-04-18T14:30:28.203Z,48.45508
2023-04-18T14:32:28.312Z,48.67383
2023-04-18T14:34:28.272Z,48.48633
2023-04-18T14:36:28.199Z,49.61328
2023-04-18T14:38:28.190Z,49.7793
2023-04-18T14:42:02.087Z,48.19727
2023-04-18T14:44:02.255Z,50.12305
2023-04-18T14:46:02.068Z,50.98047
2023-04-18T14:48:02.181Z,50.12012
2023-04-18T14:50:02.102Z,49.66992
2023-04-18T14:52:02.046Z,50.93652
2023-04-18T14:54:02.205Z,50.2793
2023-04-18T14:56:46.784Z,50.49121
2023-04-18T14:58:46.646Z,50.23242
2023-04-18T15:00:46.855Z,50.6084
2023-04-18T15:02:47.107Z,51.22461
2023-04-18T15:04:46.981Z,52.28418
2023-04-18T15:06:46.672Z,51.87891
2023-04-18T15:08:46.796Z,51.0332
2023-04-18T15:12:07.139Z,52.80371
2023-04-18T15:14:07.386Z,52.18848
2023-04-18T15:16:07.315Z,52.15137
2023-04-18T15:18:07.199Z,51.74414
2023-04-18T15:20:07.344Z,52.42871
2023-04-18T15:22:07.261Z,51.57422
2023-04-18T15:24:07.507Z,52.61719
2023-04-18T15:27:17.182Z,53.16504
2023-04-18T15:29:17.002Z,54.39941
2023-04-18T15:31:17.389Z,54.83398
2023-04-18T15:33:17.175Z,54.94238
2023-04-18T15:35:17.026Z,55.09082
2023-04-18T15:37:16.918Z,53.70996
2023-04-18T15:39:17.249Z,53.12402
2023-04-18T15:42:22.870Z,54.5127
2023-04-18T15:44:22.952Z,55.06445
2023-04-18T15:46:22.969Z,54.63867
2023-04-18T15:48:22.779Z,54.05957
2023-04-18T15:50:22.828Z,54.13086
2023-04-18T15:52:22.783Z,53.81152
2023-04-18T15:54:22.789Z,53.1377
2023-04-18T15:57:12.046Z,53.69043
2023-04-18T15:59:11.999Z,54.49902
2023-04-18T16:01:12.094Z,53.78027
2023-04-18T16:03:12.408Z,54.39063
2023-04-18T16:05:12.150Z,54.7002
2023-04-18T16:07:12.259Z,55.06543
2023-04-18T16:09:12.246Z,54.70117
2023-04-18T16:11:12.167Z,54.97266
2023-04-18T16:12:41.293Z,54.74414
2023-04-18T16:14:41.257Z,54.35645
2023-04-18T16:16:41.219Z,54.39551
2023-04-18T16:18:41.411Z,54.42871
2023-04-18T16:20:41.111Z,53.90137
2023-04-18T16:22:41.131Z,53.54395
2023-04-18T16:24:42.421Z,53.88477
2023-04-18T16:28:21.127Z,53.45605
2023-04-18T16:30:21.087Z,53.29883
2023-04-18T16:32:21.302Z,53.63281
2023-04-18T16:34:21.131Z,53.81152
2023-04-18T16:36:21.107Z,54.1377
2023-04-18T16:38:21.088Z,53.96875
2023-04-18T16:40:21.137Z,53.60352
2023-04-18T16:43:17.325Z,54.15918
2023-04-18T16:45:17.529Z,54.24121
2023-04-18T16:47:17.395Z,54.24902
2023-04-18T16:49:17.406Z,54.21094
2023-04-18T16:51:17.467Z,54.21875
2023-04-18T16:53:17.291Z,54.41406
2023-04-18T16:55:17.333Z,55.1709
2023-04-18T16:58:39.636Z,55.45898
2023-04-18T17:00:39.597Z,55.64453
2023-04-18T17:02:40.004Z,55.67676
2023-04-18T17:04:39.606Z,55.76172
2023-04-18T17:06:39.658Z,56.16797
2023-04-18T17:08:39.553Z,55.7959
2023-04-18T17:10:39.548Z,55.75488
2023-04-18T17:13:36.505Z,55.87695
2023-04-18T17:15:36.246Z,55.94531
2023-04-18T17:17:36.241Z,55.94531
2023-04-18T17:19:36.365Z,56.45996
2023-04-18T17:21:36.288Z,56.35645
2023-04-18T17:23:36.457Z,56.39258
2023-04-18T17:25:36.552Z,56.5791
2023-04-18T17:28:27.372Z,56.97266
2023-04-18T17:30:27.543Z,57.2373
2023-04-18T17:32:27.630Z,57.19824
2023-04-18T17:34:27.707Z,57.29688
2023-04-18T17:36:27.605Z,56.85156
2023-04-18T17:38:27.685Z,56.7373
2023-04-18T17:40:27.586Z,56.81348
2023-04-18T17:44:03.173Z,57.22461
2023-04-18T17:46:03.406Z,57.23145
2023-04-18T17:48:03.305Z,57.38281
2023-04-18T17:50:03.182Z,57.00684
2023-04-18T17:52:03.222Z,57.24609
2023-04-18T17:54:03.232Z,57.0791
2023-04-18T17:56:03.271Z,56.93262
2023-04-18T17:58:49.956Z,56.85352
2023-04-18T18:00:49.882Z,56.64648
2023-04-18T18:02:50.198Z,56.73926
2023-04-18T18:04:49.916Z,56.78516
2023-04-18T18:06:49.868Z,56.98828
2023-04-18T18:08:49.830Z,57.42676
2023-04-18T18:10:50.140Z,57.44824
2023-04-18T18:13:58.106Z,57.90137
2023-04-18T18:15:57.863Z,58.16113
2023-04-18T18:17:57.903Z,58.50195
2023-04-18T18:19:57.811Z,58.21289
2023-04-18T18:21:57.909Z,59.05566
2023-04-18T18:23:57.845Z,59.0957
2023-04-18T18:25:57.925Z,59.2041
2023-04-18T18:29:08.574Z,58.9541
2023-04-18T18:31:08.601Z,58.72754
2023-04-18T18:33:08.658Z,58.75293
2023-04-18T18:35:08.499Z,58.95117
2023-04-18T18:37:08.511Z,59.30176
2023-04-18T18:39:08.540Z,59.03711
2023-04-18T18:41:08.479Z,58.52637
2023-04-18T18:44:31.132Z,58.96094
2023-04-18T18:46:31.159Z,58.5752
2023-04-18T18:48:30.977Z,58.97656
2023-04-18T18:50:31.317Z,59.20605
2023-04-18T18:52:31.268Z,59.2041
2023-04-18T18:54:30.971Z,59.52539
2023-04-18T18:56:30.913Z,60.40137
2023-04-18T18:59:21.100Z,59.91211
2023-04-18T19:01:21.132Z,60.26953
2023-04-18T19:03:21.543Z,60.47754
2023-04-18T19:05:21.066Z,60.87598
2023-04-18T19:07:21.019Z,61.69727
2023-04-18T19:09:21.070Z,61.92188
2023-04-18T19:11:21.133Z,62.29883
2023-04-18T19:14:35.023Z,62.38867
2023-04-18T19:16:35.236Z,62.51074
2023-04-18T19:18:35.214Z,62.92383
2023-04-18T19:20:35.108Z,63.20508
2023-04-18T19:22:35.064Z,63.30469
2023-04-18T19:24:35.026Z,63.42383
2023-04-18T19:26:35.015Z,63.59473
2023-04-18T19:30:06.362Z,63.11719
2023-04-18T19:32:06.448Z,63.22559
2023-04-18T19:34:06.249Z,63.05762
2023-04-18T19:36:06.426Z,62.97656
2023-04-18T19:38:06.389Z,62.88086
2023-04-18T19:40:06.303Z,63.4248
2023-04-18T19:42:06.433Z,63.34082
2023-04-18T19:45:04.501Z,63.6748
2023-04-18T19:47:04.459Z,63.59863
2023-04-18T19:49:04.809Z,64.58203
2023-04-18T19:51:04.451Z,64.1709
2023-04-18T19:53:04.530Z,63.39453
2023-04-18T19:55:04.437Z,64.04688
2023-04-18T19:57:04.486Z,63.99023
2023-04-18T20:00:26.996Z,63.95605
2023-04-18T20:02:26.922Z,63.81934
2023-04-18T20:04:27.425Z,63.99316
2023-04-18T20:06:27.026Z,63.97168
2023-04-18T20:08:26.766Z,64.31348
2023-04-18T20:10:26.874Z,64.05762
2023-04-18T20:12:26.766Z,63.83789
2023-04-18T20:15:44.532Z,64.52832
2023-04-18T20:17:44.789Z,64.87598
2023-04-18T20:19:44.812Z,64.70898
2023-04-18T20:21:44.512Z,64.44238
2023-04-18T20:23:44.825Z,64.75586
2023-04-18T20:25:44.535Z,64.74512
2023-04-18T20:27:44.655Z,64.89258
2023-04-18T20:30:22.364Z,64.9541
2023-04-18T20:32:22.438Z,64.33203
2023-04-18T20:34:22.715Z,64.21094
2023-04-18T20:36:22.488Z,64.62793
2023-04-18T20:38:26.041Z,65.02832
2023-04-18T20:40:22.339Z,65.00195
2023-04-18T20:42:22.232Z,64.625
2023-04-18T20:45:40.010Z,64.73633
2023-04-18T20:47:40.087Z,64.4541
2023-04-18T20:49:40.020Z,64.74512
2023-04-18T20:51:40.351Z,65.20313
2023-04-18T20:53:40.189Z,64.88379
2023-04-18T20:55:40.292Z,64.46289
2023-04-18T20:57:40.217Z,64.67773
2023-04-18T21:01:22.669Z,65.06543
2023-04-18T21:03:22.822Z,64.8418
2023-04-18T21:05:22.584Z,65.38184
2023-04-18T21:07:22.759Z,65.29883
2023-04-18T21:09:22.575Z,65.23828
2023-04-18T21:11:22.906Z,65.11719
2023-04-18T21:13:22.474Z,65.14355
2023-04-18T21:15:44.351Z,64.94727
2023-04-18T21:17:44.327Z,64.44336
2023-04-18T21:19:44.248Z,65.11719
2023-04-18T21:21:44.201Z,64.9541
2023-04-18T21:23:44.351Z,65.00195
2023-04-18T21:25:44.850Z,64.71484
2023-04-18T21:27:44.333Z,64.86426
2023-04-18T21:29:44.171Z,64.6875
2023-04-18T21:31:35.737Z,64.53906
2023-04-18T21:33:35.780Z,65.12305
2023-04-18T21:35:35.519Z,65.00391
2023-04-18T21:37:35.724Z,64.86914
2023-04-18T21:39:35.828Z,64.78223
2023-04-18T21:41:35.627Z,65.09082
2023-04-18T21:43:35.522Z,64.82715
2023-04-18T21:46:34.399Z,64.74609
2023-04-18T21:48:34.567Z,64.23633
2023-04-18T21:50:34.455Z,64.66602
2023-04-18T21:52:34.331Z,64.67773
2023-04-18T21:54:34.403Z,64.82129
2023-04-18T21:56:34.469Z,64.71777
2023-04-18T21:58:34.349Z,65.05859
2023-04-18T22:01:49.642Z,65.76367
2023-04-18T22:03:50.247Z,65.58984
2023-04-18T22:05:49.794Z,65.12793
2023-04-18T22:07:58.766Z,65.52539
2023-04-18T22:09:49.539Z,65.17578
2023-04-18T22:11:49.691Z,64.82031
2023-04-18T22:13:49.551Z,64.42383
2023-04-18T22:16:46.454Z,64.25684
2023-04-18T22:18:46.260Z,64.08887
2023-04-18T22:20:46.270Z,64.39258
2023-04-18T22:22:46.316Z,64.5293
2023-04-18T22:24:48.072Z,64.44629
2023-04-18T22:26:46.243Z,64.29199
2023-04-18T22:28:46.329Z,64.18164
2023-04-18T22:32:15.322Z,64.37988
2023-04-18T22:34:16.041Z,64.37988
2023-04-18T22:36:15.269Z,64.31738
2023-04-18T22:38:15.364Z,64.79199
2023-04-18T22:40:15.307Z,65.24316
2023-04-18T22:42:15.282Z,65.0957
2023-04-18T22:44:16.236Z,65.52051
2023-04-18T22:47:29.328Z,66.16895
2023-04-18T22:49:29.321Z,65.72852
2023-04-18T22:51:29.269Z,65.9082
2023-04-18T22:53:29.310Z,65.50098
2023-04-18T22:55:29.256Z,65.07227
2023-04-18T22:57:29.352Z,64.82617
2023-04-18T22:59:29.439Z,64.86426
2023-04-18T23:02:44.837Z,65.41406
2023-04-18T23:04:44.574Z,65.56543
2023-04-18T23:06:44.358Z,65.76953
2023-04-18T23:08:44.421Z,65.85352
2023-04-18T23:10:44.345Z,65.85254
2023-04-18T23:12:44.375Z,66.23633
2023-04-18T23:14:44.447Z,66.30469
2023-04-18T23:17:41.545Z,66.25
2023-04-18T23:19:41.449Z,66.25586
2023-04-18T23:21:41.502Z,67.12012
2023-04-18T23:23:41.398Z,67.12012
2023-04-18T23:25:41.405Z,67.30469
2023-04-18T23:27:41.582Z,67.47363
2023-04-18T23:29:41.409Z,67.44336
2023-04-18T23:32:51.173Z,67.45996
2023-04-18T23:34:50.938Z,67.41504
2023-04-18T23:36:51.006Z,67.40625
2023-04-18T23:38:50.867Z,67.86719
2023-04-18T23:40:50.889Z,67.79395
2023-04-18T23:42:50.849Z,67.70996
2023-04-18T23:44:51.288Z,67.61816
2023-04-18T23:47:26.266Z,67.75684
2023-04-18T23:49:26.346Z,67.55371
2023-04-18T23:51:26.179Z,67.72363
2023-04-18T23:53:26.239Z,67.85938
2023-04-18T23:55:26.248Z,67.66406
2023-04-18T23:57:26.182Z,67.86719
2023-04-18T23:59:26.212Z,68
